Time;durP1;ratioP1;P1;durP2;ratioP2;P2;SDS_P1;SDS_P2;PMS_P1;PMS_P2;Temp;Humidity;BMP_temperature;BMP_pressure;BME280_temperature;BME280_humidity;BME280_pressure;Samples;Min_cycle;Max_cycle;Signal;HPM_P1;HPM_P2
2023/08/20 00:00:04;;;;;;;1.50;0.60;;;24.90;99.90;;;;;;4399045;32;20066;-74
2023/08/20 00:02:32;;;;;;;1.20;0.77;;;24.90;99.90;;;;;;4401478;32;20593;-74
2023/08/20 00:04:58;;;;;;;1.27;0.62;;;24.90;99.90;;;;;;4401373;32;20062;-74
2023/08/20 00:07:24;;;;;;;0.85;0.60;;;24.90;99.90;;;;;;4401208;32;20128;-74
2023/08/20 00:09:49;;;;;;;0.75;0.75;;;24.90;99.90;;;;;;4400761;32;20082;-75
2023/08/20 00:12:15;;;;;;;2.03;1.00;;;24.90;99.90;;;;;;4401864;32;20117;-74
2023/08/20 00:14:58;;;;;;;0.68;0.68;;;24.80;99.90;;;;;;4401287;32;20095;-74
2023/08/20 00:17:26;;;;;;;0.62;0.62;;;24.70;99.90;;;;;;4390220;32;20082;-75
2023/08/20 00:19:53;;;;;;;0.68;0.57;;;24.70;99.90;;;;;;4403782;32;20137;-74
2023/08/20 00:22:21;;;;;;;0.32;0.32;;;24.60;99.90;;;;;;4403574;32;20506;-73
2023/08/20 00:24:47;;;;;;;0.60;0.60;;;24.60;99.90;;;;;;4404768;32;20075;-74
2023/08/20 00:27:12;;;;;;;0.68;0.68;;;24.60;99.90;;;;;;4402881;32;20074;-74
2023/08/20 00:29:38;;;;;;;0.77;0.77;;;24.60;99.90;;;;;;4402564;32;20065;-74
2023/08/20 00:32:04;;;;;;;1.52;1.00;;;24.40;99.90;;;;;;4402559;32;20118;-74
2023/08/20 00:34:29;;;;;;;0.55;0.47;;;24.40;99.90;;;;;;4403076;32;20085;-74
2023/08/20 00:36:54;;;;;;;1.58;1.10;;;24.30;99.90;;;;;;4402856;32;20522;-75
2023/08/20 00:39:20;;;;;;;1.08;0.55;;;24.30;99.90;;;;;;4403237;32;20066;-74
2023/08/20 00:41:45;;;;;;;0.60;0.60;;;24.20;99.90;;;;;;4403191;32;20126;-74
2023/08/20 00:44:11;;;;;;;1.30;0.60;;;24.20;99.90;;;;;;4402522;32;20074;-75
2023/08/20 00:46:36;;;;;;;1.23;0.90;;;24.20;99.90;;;;;;4402625;32;20825;-74
2023/08/20 00:49:02;;;;;;;0.52;0.50;;;24.10;99.90;;;;;;4401779;32;20066;-74
2023/08/20 00:51:28;;;;;;;0.65;0.65;;;24.00;99.90;;;;;;4401777;32;20122;-74
2023/08/20 00:53:54;;;;;;;0.95;0.82;;;24.00;99.90;;;;;;4401593;32;20411;-74
2023/08/20 00:56:20;;;;;;;3.45;0.90;;;24.00;99.90;;;;;;4402568;32;20066;-74
2023/08/20 00:58:46;;;;;;;1.40;0.70;;;24.00;99.90;;;;;;4401871;32;20137;-74
2023/08/20 01:01:11;;;;;;;1.12;0.85;;;24.10;99.90;;;;;;4402843;32;20066;-74
2023/08/20 01:03:36;;;;;;;13.48;0.77;;;24.20;99.90;;;;;;4404534;32;20105;-74
2023/08/20 01:06:20;;;;;;;2.37;1.12;;;24.30;99.90;;;;;;4404957;32;20086;-74
2023/08/20 01:08:52;;;;;;;1.58;0.82;;;24.50;99.90;;;;;;4404960;32;20070;-74
2023/08/20 01:11:24;;;;;;;1.27;0.82;;;24.50;99.90;;;;;;4404493;32;20070;-74
2023/08/20 01:13:50;;;;;;;0.90;0.85;;;24.70;99.90;;;;;;4405376;32;20089;-74
2023/08/20 01:16:15;;;;;;;0.50;0.50;;;24.70;99.90;;;;;;4404524;32;20069;-74
2023/08/20 01:18:41;;;;;;;3.50;1.85;;;24.70;99.90;;;;;;4405331;32;20079;-74
2023/08/20 01:21:23;;;;;;;1.12;0.65;;;24.60;99.90;;;;;;4405793;32;20088;-74
2023/08/20 01:24:05;;;;;;;0.40;0.40;;;24.70;99.90;;;;;;4405591;32;20565;-74
2023/08/20 01:26:48;;;;;;;7.07;0.82;;;24.60;99.90;;;;;;4405188;32;20110;-74
2023/08/20 01:29:14;;;;;;;0.73;0.73;;;24.60;99.90;;;;;;4405081;32;20221;-74
2023/08/20 01:31:40;;;;;;;0.60;0.60;;;24.60;99.90;;;;;;4405397;32;20116;-74
2023/08/20 01:34:06;;;;;;;1.60;1.15;;;24.50;99.90;;;;;;4404181;32;20074;-74
2023/08/20 01:36:31;;;;;;;0.40;0.40;;;24.50;99.90;;;;;;4405588;32;20086;-74
2023/08/20 01:38:57;;;;;;;1.65;0.52;;;24.50;99.90;;;;;;4405581;32;20086;-74
2023/08/20 01:41:22;;;;;;;0.45;0.45;;;24.40;99.90;;;;;;4404969;32;20610;-74
2023/08/20 01:43:48;;;;;;;0.43;0.43;;;24.40;99.90;;;;;;4404867;32;20070;-74
2023/08/20 01:46:13;;;;;;;1.52;1.15;;;24.50;99.90;;;;;;4405100;32;20065;-74
2023/08/20 01:48:39;;;;;;;0.45;0.45;;;24.50;99.90;;;;;;4405031;32;20069;-74
2023/08/20 01:51:04;;;;;;;1.20;0.50;;;24.50;99.90;;;;;;4404917;32;20069;-74
2023/08/20 01:53:30;;;;;;;0.95;0.90;;;24.40;99.90;;;;;;4405142;32;20612;-74
2023/08/20 01:55:55;;;;;;;0.88;0.50;;;24.40;99.90;;;;;;4405402;32;20311;-74
2023/08/20 01:58:21;;;;;;;0.70;0.70;;;24.40;99.90;;;;;;4404290;32;20066;-74
2023/08/20 02:00:47;;;;;;;1.02;0.57;;;24.40;99.90;;;;;;4404627;32;20075;-74
2023/08/20 02:03:13;;;;;;;0.47;0.47;;;24.30;99.90;;;;;;4388941;32;20525;-74
2023/08/20 02:05:38;;;;;;;1.10;0.80;;;24.30;99.90;;;;;;4386788;32;20075;-74
2023/08/20 02:08:04;;;;;;;1.17;0.65;;;24.30;99.90;;;;;;4389150;32;20066;-74
2023/08/20 02:10:30;;;;;;;0.62;0.62;;;24.30;99.90;;;;;;4388082;32;20726;-74
2023/08/20 02:12:55;;;;;;;0.35;0.35;;;24.20;99.90;;;;;;4390082;32;20086;-74
2023/08/20 02:15:21;;;;;;;0.45;0.40;;;24.30;99.90;;;;;;4389529;32;20127;-74
2023/08/20 02:17:46;;;;;;;0.52;0.52;;;24.20;99.90;;;;;;4388325;32;20070;-74
2023/08/20 02:20:12;;;;;;;0.50;0.50;;;24.20;99.90;;;;;;4387412;32;20071;-74
2023/08/20 02:22:37;;;;;;;0.43;0.43;;;24.10;99.90;;;;;;4387847;32;20071;-73
2023/08/20 02:25:03;;;;;;;0.60;0.60;;;24.10;99.90;;;;;;4389153;32;20463;-73
2023/08/20 02:27:28;;;;;;;1.20;1.02;;;24.10;99.90;;;;;;4388455;32;20074;-73
2023/08/20 02:29:54;;;;;;;0.88;0.70;;;24.00;99.90;;;;;;4387127;32;20122;-73
2023/08/20 02:32:19;;;;;;;0.40;0.40;;;24.10;99.90;;;;;;4387182;32;20078;-73
2023/08/20 02:34:49;;;;;;;0.52;0.40;;;24.00;99.90;;;;;;4387115;32;20125;-73
2023/08/20 02:37:15;;;;;;;1.17;0.40;;;24.00;99.90;;;;;;4387084;32;20105;-73
2023/08/20 02:39:40;;;;;;;1.33;0.85;;;24.00;99.90;;;;;;4388608;32;20086;-74
2023/08/20 02:42:06;;;;;;;1.85;0.50;;;24.00;99.90;;;;;;4387278;32;20433;-73
2023/08/20 02:44:31;;;;;;;1.37;0.60;;;24.00;99.90;;;;;;4387927;32;20062;-72
2023/08/20 02:46:57;;;;;;;2.12;0.85;;;24.00;99.90;;;;;;4387249;32;20112;-73
2023/08/20 02:49:22;;;;;;;0.40;0.40;;;23.90;99.90;;;;;;4387637;32;20513;-73
2023/08/20 02:51:47;;;;;;;0.70;0.70;;;23.80;99.90;;;;;;4387849;32;20086;-74
2023/08/20 02:54:13;;;;;;;0.80;0.57;;;23.90;99.90;;;;;;4388259;32;20423;-73
2023/08/20 02:56:38;;;;;;;2.55;0.90;;;23.80;99.90;;;;;;4401161;32;20509;-73
2023/08/20 02:59:04;;;;;;;1.02;0.60;;;23.80;99.90;;;;;;4400983;32;20065;-73
2023/08/20 03:01:30;;;;;;;0.47;0.47;;;23.80;99.90;;;;;;4403843;32;20078;-73
2023/08/20 03:03:55;;;;;;;0.57;0.55;;;23.80;99.90;;;;;;4403629;32;20062;-72
2023/08/20 03:06:21;;;;;;;3.97;1.10;;;23.70;99.90;;;;;;4401797;32;20069;-73
2023/08/20 03:08:46;;;;;;;3.00;0.90;;;23.70;99.90;;;;;;4402828;32;20131;-73
2023/08/20 03:11:12;;;;;;;0.62;0.45;;;23.60;99.90;;;;;;4401324;32;20082;-74
2023/08/20 03:13:37;;;;;;;0.55;0.55;;;23.60;99.90;;;;;;4402136;32;20066;-73
2023/08/20 03:16:03;;;;;;;1.37;0.82;;;23.50;99.90;;;;;;4401630;32;20078;-73
2023/08/20 03:18:29;;;;;;;0.57;0.57;;;23.60;99.90;;;;;;4402596;32;20311;-73
2023/08/20 03:20:56;;;;;;;1.37;1.00;;;23.60;99.90;;;;;;4401798;32;20074;-73
2023/08/20 03:23:23;;;;;;;0.40;0.40;;;23.50;99.90;;;;;;4401827;32;20062;-73
2023/08/20 03:25:48;;;;;;;4.32;1.25;;;23.50;99.90;;;;;;4401359;32;20097;-74
2023/08/20 03:28:13;;;;;;;1.67;0.77;;;23.50;99.90;;;;;;4401584;32;20070;-74
2023/08/20 03:30:39;;;;;;;0.88;0.65;;;23.40;99.90;;;;;;4401075;32;20070;-74
2023/08/20 03:33:04;;;;;;;0.95;0.68;;;23.40;99.90;;;;;;4401166;32;20510;-74
2023/08/20 03:35:30;;;;;;;4.37;0.62;;;23.30;99.90;;;;;;4401852;32;20125;-74
2023/08/20 03:37:55;;;;;;;0.98;0.85;;;23.40;99.90;;;;;;4400435;32;20079;-75
2023/08/20 03:40:21;;;;;;;0.80;0.77;;;23.30;99.90;;;;;;4400743;32;20079;-74
2023/08/20 03:42:46;;;;;;;1.12;0.77;;;23.20;99.90;;;;;;4400657;32;20094;-74
2023/08/20 03:45:12;;;;;;;0.47;0.47;;;23.20;99.90;;;;;;4400703;32;20416;-74
2023/08/20 03:47:37;;;;;;;2.58;1.37;;;23.20;99.90;;;;;;4400953;32;20062;-74
2023/08/20 03:50:03;;;;;;;2.95;1.00;;;23.20;99.90;;;;;;4400017;32;20066;-74
2023/08/20 03:52:29;;;;;;;0.50;0.50;;;23.10;99.90;;;;;;4401905;32;20073;-73
2023/08/20 03:54:54;;;;;;;1.08;0.77;;;23.20;99.90;;;;;;4400797;32;20130;-74
2023/08/20 03:57:20;;;;;;;1.48;0.75;;;23.20;99.90;;;;;;4401049;32;20065;-74
2023/08/20 03:59:45;;;;;;;0.40;0.40;;;23.10;99.90;;;;;;4401038;32;20078;-74
2023/08/20 04:02:11;;;;;;;3.10;0.57;;;23.10;99.90;;;;;;4401229;32;20074;-74
2023/08/20 04:04:37;;;;;;;3.00;1.17;;;23.10;99.90;;;;;;4401123;32;20457;-74
2023/08/20 04:07:03;;;;;;;1.65;0.62;;;23.10;99.90;;;;;;4400828;32;20057;-74
2023/08/20 04:09:28;;;;;;;3.58;1.10;;;23.10;99.90;;;;;;4402503;32;20091;-74
2023/08/20 04:11:54;;;;;;;11.05;1.65;;;23.00;99.90;;;;;;4401167;32;20091;-74
2023/08/20 04:14:19;;;;;;;5.07;1.02;;;23.00;99.90;;;;;;4400307;32;20522;-74
2023/08/20 04:16:45;;;;;;;0.80;0.50;;;23.00;99.90;;;;;;4400525;32;20073;-74
2023/08/20 04:19:11;;;;;;;1.02;0.50;;;22.90;99.90;;;;;;4401005;32;20065;-74
2023/08/20 04:21:36;;;;;;;4.25;1.42;;;22.80;99.90;;;;;;4400935;32;20066;-74
2023/08/20 04:24:02;;;;;;;1.48;0.93;;;22.80;99.90;;;;;;4400610;32;20070;-74
2023/08/20 04:26:27;;;;;;;0.40;0.40;;;22.70;99.90;;;;;;4400837;32;20058;-74
2023/08/20 04:28:53;;;;;;;1.92;0.80;;;22.80;99.90;;;;;;4400944;32;20078;-74
2023/08/20 04:31:18;;;;;;;2.62;1.37;;;22.80;99.90;;;;;;4400257;32;20392;-74
2023/08/20 04:33:45;;;;;;;1.30;0.80;;;22.90;99.90;;;;;;4400127;32;20074;-74
2023/08/20 04:36:11;;;;;;;3.60;0.77;;;22.90;99.90;;;;;;4401041;32;20062;-74
2023/08/20 04:38:36;;;;;;;3.17;1.10;;;22.80;99.90;;;;;;4400674;32;20078;-74
2023/08/20 04:41:02;;;;;;;3.25;1.52;;;22.80;99.90;;;;;;4400961;32;20066;-74
2023/08/20 04:43:27;;;;;;;3.05;1.35;;;22.70;99.90;;;;;;4400366;32;20070;-74
2023/08/20 04:45:53;;;;;;;0.50;0.50;;;22.80;99.90;;;;;;4401420;32;20078;-74
2023/08/20 04:48:18;;;;;;;2.28;1.23;;;22.90;99.90;;;;;;4402263;32;20169;-74
2023/08/20 04:50:44;;;;;;;1.65;1.10;;;22.80;99.90;;;;;;4400639;32;20396;-74
2023/08/20 04:53:09;;;;;;;0.57;0.47;;;22.70;99.90;;;;;;4401271;32;20125;-73
2023/08/20 04:55:35;;;;;;;0.40;0.37;;;22.80;99.90;;;;;;4400828;32;20117;-74
2023/08/20 04:58:00;;;;;;;2.00;1.23;;;22.80;99.90;;;;;;4401193;32;20086;-74
2023/08/20 05:00:27;;;;;;;0.50;0.50;;;22.80;99.90;;;;;;4402245;32;20082;-74
2023/08/20 05:02:52;;;;;;;0.40;0.40;;;22.80;99.90;;;;;;4391973;32;20070;-74
2023/08/20 05:05:18;;;;;;;0.60;0.60;;;22.80;99.90;;;;;;4387839;32;20137;-75
2023/08/20 05:07:44;;;;;;;0.45;0.45;;;22.70;99.90;;;;;;4388434;32;20079;-75
2023/08/20 05:10:09;;;;;;;2.85;0.85;;;22.70;99.90;;;;;;4387209;32;20076;-75
2023/08/20 05:12:36;;;;;;;0.40;0.40;;;22.70;99.90;;;;;;4388583;32;20066;-74
2023/08/20 05:15:01;;;;;;;2.33;0.60;;;22.70;99.90;;;;;;4387448;32;20078;-74
2023/08/20 05:17:27;;;;;;;0.80;0.60;;;22.70;99.90;;;;;;4387927;32;20078;-74
2023/08/20 05:19:52;;;;;;;0.40;0.40;;;22.80;99.90;;;;;;4387730;32;20126;-75
2023/08/20 05:22:18;;;;;;;2.97;1.00;;;22.80;99.90;;;;;;4387354;32;20066;-74
2023/08/20 05:24:43;;;;;;;0.57;0.57;;;22.80;99.90;;;;;;4387829;32;20406;-75
2023/08/20 05:27:15;;;;;;;0.52;0.50;;;22.80;99.90;;;;;;4387838;32;20130;-74
2023/08/20 05:29:41;;;;;;;3.37;1.40;;;22.90;99.90;;;;;;4386860;32;20546;-74
2023/08/20 05:32:07;;;;;;;1.40;0.73;;;22.80;99.90;;;;;;4387003;32;20083;-74
2023/08/20 05:34:32;;;;;;;1.85;0.85;;;22.80;99.90;;;;;;4387516;32;20082;-74
2023/08/20 05:36:58;;;;;;;0.40;0.40;;;22.80;99.90;;;;;;4387418;32;20070;-74
2023/08/20 05:39:25;;;;;;;0.50;0.50;;;22.90;99.90;;;;;;4387621;32;20066;-74
2023/08/20 05:41:51;;;;;;;1.30;1.02;;;22.80;99.90;;;;;;4387182;32;20125;-75
2023/08/20 05:44:17;;;;;;;0.77;0.77;;;22.90;99.90;;;;;;4387925;32;20102;-74
2023/08/20 05:46:43;;;;;;;0.90;0.65;;;22.80;99.90;;;;;;4388174;32;20067;-74
2023/08/20 05:49:08;;;;;;;1.30;0.95;;;22.80;99.90;;;;;;4387524;32;20063;-74
2023/08/20 05:51:34;;;;;;;0.62;0.50;;;22.90;99.90;;;;;;4387188;32;20079;-74
2023/08/20 05:53:59;;;;;;;0.30;0.30;;;23.00;99.90;;;;;;4386129;32;20112;-75
2023/08/20 05:56:25;;;;;;;7.28;0.55;;;23.00;99.90;;;;;;4386248;32;20066;-74
2023/08/20 05:58:51;;;;;;;0.57;0.55;;;23.00;99.90;;;;;;4386528;32;20079;-74
2023/08/20 06:01:16;;;;;;;1.58;0.80;;;23.10;99.90;;;;;;4387810;32;20074;-75
2023/08/20 06:03:42;;;;;;;1.67;1.08;;;23.00;99.90;;;;;;4401445;32;20593;-74
2023/08/20 06:06:07;;;;;;;1.92;0.90;;;23.00;99.90;;;;;;4400142;32;20079;-74
2023/08/20 06:08:32;;;;;;;6.37;1.48;;;22.90;99.90;;;;;;4401461;32;20065;-74
2023/08/20 06:10:58;;;;;;;1.40;0.70;;;22.80;99.90;;;;;;4401043;32;20090;-75
2023/08/20 06:13:23;;;;;;;2.33;0.77;;;22.80;99.90;;;;;;4400479;32;20062;-74
2023/08/20 06:15:49;;;;;;;0.65;0.65;;;22.80;99.90;;;;;;4401674;32;20111;-74
2023/08/20 06:18:14;;;;;;;1.15;0.62;;;22.90;99.90;;;;;;4399988;32;20098;-74
2023/08/20 06:20:40;;;;;;;1.12;0.60;;;22.90;99.90;;;;;;4401506;32;20533;-74
2023/08/20 06:23:06;;;;;;;0.82;0.52;;;22.90;99.90;;;;;;4402226;32;20144;-74
2023/08/20 06:25:31;;;;;;;1.17;0.82;;;22.70;99.90;;;;;;4400134;32;20145;-74
2023/08/20 06:27:57;;;;;;;3.45;1.02;;;22.70;99.90;;;;;;4400871;32;20136;-74
2023/08/20 06:30:22;;;;;;;0.62;0.50;;;22.70;99.90;;;;;;4401184;32;20070;-74
2023/08/20 06:32:48;;;;;;;0.85;0.50;;;22.80;99.90;;;;;;4401064;32;20081;-73
2023/08/20 06:35:14;;;;;;;0.62;0.62;;;22.80;99.90;;;;;;4400744;32;20082;-74
2023/08/20 06:37:40;;;;;;;0.43;0.43;;;22.80;99.90;;;;;;4400583;32;20435;-74
2023/08/20 06:40:07;;;;;;;1.10;0.70;;;22.80;99.90;;;;;;4400048;32;20079;-73
2023/08/20 06:42:32;;;;;;;0.75;0.60;;;22.80;99.90;;;;;;4401735;32;20065;-73
2023/08/20 06:44:57;;;;;;;0.30;0.30;;;22.80;99.90;;;;;;4400214;32;20070;-73
2023/08/20 06:47:23;;;;;;;0.57;0.57;;;22.80;99.90;;;;;;4401186;32;20058;-73
2023/08/20 06:49:50;;;;;;;0.73;0.40;;;22.90;99.90;;;;;;4400443;32;20065;-73
2023/08/20 06:52:15;;;;;;;0.80;0.75;;;23.00;99.90;;;;;;4402506;32;20066;-73
2023/08/20 06:54:41;;;;;;;0.62;0.62;;;23.00;99.90;;;;;;4401569;32;20561;-73
2023/08/20 06:57:06;;;;;;;1.12;1.02;;;23.00;99.90;;;;;;4401376;32;20514;-74
2023/08/20 06:59:32;;;;;;;2.17;1.10;;;23.00;99.90;;;;;;4401123;32;20157;-73
2023/08/20 07:01:57;;;;;;;0.70;0.50;;;22.90;99.90;;;;;;4394980;32;20078;-73
2023/08/20 07:04:23;;;;;;;0.50;0.50;;;22.90;99.90;;;;;;4386604;32;20066;-73
2023/08/20 07:06:50;;;;;;;1.05;0.80;;;22.90;99.90;;;;;;4386437;32;20075;-75
2023/08/20 07:09:16;;;;;;;2.15;0.88;;;22.90;99.90;;;;;;4386581;32;20594;-74
2023/08/20 07:11:41;;;;;;;0.57;0.35;;;22.80;99.90;;;;;;4385695;32;20070;-73
2023/08/20 07:14:07;;;;;;;1.92;0.60;;;22.80;99.90;;;;;;4387586;32;20077;-74
2023/08/20 07:16:32;;;;;;;0.50;0.50;;;22.90;99.90;;;;;;4385162;32;20073;-74
2023/08/20 07:18:58;;;;;;;0.50;0.50;;;22.90;99.90;;;;;;4384746;32;20070;-74
2023/08/20 07:21:23;;;;;;;2.20;0.57;;;23.00;99.90;;;;;;4385065;32;20078;-74
2023/08/20 07:23:49;;;;;;;0.45;0.43;;;23.10;99.90;;;;;;4385673;32;20083;-74
2023/08/20 07:26:15;;;;;;;0.32;0.32;;;23.20;99.90;;;;;;4386841;32;20113;-74
2023/08/20 07:28:56;;;;;;;0.40;0.40;;;23.20;99.90;;;;;;4386290;32;20073;-74
2023/08/20 07:31:23;;;;;;;3.60;1.17;;;23.20;99.90;;;;;;4383781;32;20069;-75
2023/08/20 07:33:49;;;;;;;2.22;0.73;;;23.20;99.90;;;;;;4384871;32;20117;-74
2023/08/20 07:36:15;;;;;;;1.00;0.73;;;23.30;99.90;;;;;;4384764;32;20079;-74
2023/08/20 07:38:42;;;;;;;1.58;1.05;;;23.30;99.90;;;;;;4385656;32;20070;-74
2023/08/20 07:41:08;;;;;;;1.10;0.60;;;23.40;99.90;;;;;;4386079;32;20070;-74
2023/08/20 07:43:34;;;;;;;1.10;0.57;;;23.40;99.90;;;;;;4398741;32;20149;-74
2023/08/20 07:45:59;;;;;;;0.30;0.30;;;23.40;99.90;;;;;;4400553;32;20081;-74
2023/08/20 07:48:25;;;;;;;0.30;0.30;;;23.60;99.90;;;;;;4401337;32;20121;-74
2023/08/20 07:50:50;;;;;;;0.30;0.30;;;23.60;99.90;;;;;;4402371;32;20086;-74
2023/08/20 07:53:15;;;;;;;8.88;1.42;;;23.80;99.90;;;;;;4400667;32;20412;-74
2023/08/20 07:55:41;;;;;;;0.32;0.32;;;23.90;99.90;;;;;;4402022;32;20122;-74
2023/08/20 07:58:06;;;;;;;0.85;0.43;;;24.10;99.90;;;;;;4401915;32;20062;-74
2023/08/20 08:00:32;;;;;;;1.08;0.43;;;24.20;99.90;;;;;;4401527;32;20416;-74
2023/08/20 08:02:57;;;;;;;0.15;0.15;;;24.20;99.90;;;;;;4401206;32;20079;-74
2023/08/20 08:05:23;;;;;;;0.30;0.30;;;24.30;99.90;;;;;;4401009;32;20418;-74
2023/08/20 08:07:48;;;;;;;0.65;0.40;;;24.40;99.90;;;;;;4400340;32;20077;-74
2023/08/20 08:10:14;;;;;;;0.40;0.40;;;24.40;99.90;;;;;;4401974;32;20546;-74
2023/08/20 08:12:39;;;;;;;0.37;0.37;;;24.40;99.90;;;;;;4400770;32;20070;-75
2023/08/20 08:15:05;;;;;;;0.45;0.40;;;24.40;99.90;;;;;;4400211;32;20074;-74
2023/08/20 08:17:30;;;;;;;0.45;0.45;;;24.50;99.90;;;;;;4400284;32;20125;-74
2023/08/20 08:19:57;;;;;;;0.22;0.22;;;24.50;99.90;;;;;;4399927;32;20129;-74
2023/08/20 08:22:23;;;;;;;0.73;0.30;;;24.50;99.90;;;;;;4399816;32;20070;-74
2023/08/20 08:24:48;;;;;;;0.47;0.47;;;24.50;99.90;;;;;;4399367;32;20087;-75
2023/08/20 08:27:14;;;;;;;0.40;0.37;;;24.50;99.90;;;;;;4400517;32;20070;-74
2023/08/20 08:29:39;;;;;;;0.55;0.55;;;24.50;99.90;;;;;;4399572;32;20082;-74
2023/08/20 08:32:05;;;;;;;0.30;0.30;;;24.60;99.90;;;;;;4400746;32;20090;-74
2023/08/20 08:34:30;;;;;;;0.25;0.17;;;24.50;99.90;;;;;;4401255;32;20109;-74
2023/08/20 08:36:56;;;;;;;0.17;0.17;;;24.60;99.90;;;;;;4403002;32;20073;-74
2023/08/20 08:39:21;;;;;;;0.35;0.35;;;24.50;99.90;;;;;;4403631;32;20065;-74
2023/08/20 08:41:51;;;;;;;0.62;0.35;;;24.50;99.90;;;;;;4404955;32;20117;-74
2023/08/20 08:44:16;;;;;;;1.10;0.60;;;24.70;99.90;;;;;;4403369;32;20062;-74
2023/08/20 08:46:42;;;;;;;0.60;0.22;;;24.70;99.90;;;;;;4404292;32;20087;-74
2023/08/20 08:49:08;;;;;;;0.30;0.30;;;24.90;99.90;;;;;;4405876;32;20094;-74
2023/08/20 08:51:36;;;;;;;0.90;0.30;;;25.00;99.90;;;;;;4405232;32;20050;-74
2023/08/20 08:54:02;;;;;;;0.20;0.20;;;25.10;99.90;;;;;;4403368;32;20062;-74
2023/08/20 08:56:28;;;;;;;1.50;0.40;;;25.10;99.90;;;;;;4405184;32;20070;-74
2023/08/20 08:58:54;;;;;;;0.20;0.20;;;25.10;99.90;;;;;;4405289;32;20416;-74
2023/08/20 09:01:20;;;;;;;0.08;0.08;;;25.20;99.90;;;;;;4405403;32;20054;-74
2023/08/20 09:03:47;;;;;;;0.40;0.20;;;25.30;99.90;;;;;;4406456;32;20074;-74
2023/08/20 09:06:12;;;;;;;0.13;0.13;;;25.40;99.90;;;;;;4406805;32;20066;-74
2023/08/20 09:08:38;;;;;;;0.22;0.17;;;25.60;99.90;;;;;;4404200;32;20526;-74
2023/08/20 09:11:03;;;;;;;0.37;0.37;;;25.60;99.90;;;;;;4405804;32;20070;-74
2023/08/20 09:13:44;;;;;;;0.32;0.32;;;25.70;99.90;;;;;;4407449;32;20058;-74
2023/08/20 09:16:12;;;;;;;0.20;0.20;;;25.80;99.90;;;;;;4406898;32;20082;-74
2023/08/20 09:18:40;;;;;;;0.35;0.35;;;25.70;99.90;;;;;;4405664;32;20070;-74
2023/08/20 09:21:08;;;;;;;0.90;0.20;;;25.60;99.90;;;;;;4405292;32;20379;-74
2023/08/20 09:23:34;;;;;;;0.40;0.28;;;25.60;99.90;;;;;;4404003;32;20085;-74
2023/08/20 09:26:02;;;;;;;1.08;0.40;;;25.70;99.90;;;;;;4404463;32;20412;-74
2023/08/20 09:28:28;;;;;;;0.22;0.22;;;25.90;99.90;;;;;;4405213;32;20605;-74
2023/08/20 09:30:56;;;;;;;0.25;0.25;;;26.20;99.90;;;;;;4407813;32;20065;-74
2023/08/20 09:33:21;;;;;;;0.20;0.20;;;26.50;99.90;;;;;;4403574;32;20066;-74
2023/08/20 09:35:51;;;;;;;0.25;0.25;;;26.70;99.90;;;;;;4406552;32;20078;-74
2023/08/20 09:38:21;;;;;;;2.80;1.20;;;26.60;99.90;;;;;;4403681;32;20135;-74
2023/08/20 09:40:49;;;;;;;0.10;0.10;;;26.70;99.90;;;;;;4404774;32;20075;-74
2023/08/20 09:43:16;;;;;;;0.15;0.15;;;26.80;99.90;;;;;;4405584;32;20070;-75
2023/08/20 09:45:43;;;;;;;0.20;0.20;;;27.00;99.90;;;;;;4405364;32;20126;-74
2023/08/20 09:48:11;;;;;;;0.10;0.10;;;27.20;99.90;;;;;;4406715;32;20070;-74
2023/08/20 09:50:37;;;;;;;0.25;0.25;;;27.40;99.90;;;;;;4406397;32;20066;-74
2023/08/20 09:53:11;;;;;;;0.32;0.32;;;27.50;99.90;;;;;;4406556;32;20525;-74
2023/08/20 09:55:38;;;;;;;0.20;0.20;;;27.80;99.90;;;;;;4405973;32;20117;-74
2023/08/20 09:58:05;;;;;;;0.10;0.10;;;27.90;99.90;;;;;;4404560;32;20090;-74
2023/08/20 10:00:32;;;;;;;0.10;0.10;;;27.80;99.90;;;;;;4405317;32;20317;-73
2023/08/20 10:02:58;;;;;;;0.20;0.20;;;27.70;99.90;;;;;;4405914;32;20091;-74
2023/08/20 10:05:24;;;;;;;0.20;0.20;;;27.80;99.90;;;;;;4407132;32;20129;-73
2023/08/20 10:07:50;;;;;;;7.22;0.73;;;27.90;99.90;;;;;;4406580;32;20070;-75
2023/08/20 10:10:16;;;;;;;4.65;0.47;;;28.00;99.90;;;;;;4404847;32;20101;-75
2023/08/20 10:12:44;;;;;;;0.25;0.25;;;28.20;99.90;;;;;;4404674;32;20479;-74
2023/08/20 10:15:12;;;;;;;0.10;0.10;;;28.30;99.90;;;;;;4407108;32;20078;-73
2023/08/20 10:17:40;;;;;;;0.20;0.20;;;28.30;99.90;;;;;;4407541;32;20129;-73
2023/08/20 10:20:07;;;;;;;0.22;0.10;;;28.50;99.90;;;;;;4407488;32;20083;-74
2023/08/20 10:22:37;;;;;;;0.20;0.20;;;28.60;99.90;;;;;;4404341;32;20090;-73
2023/08/20 10:25:08;;;;;;;0.10;0.10;;;28.80;99.90;;;;;;4406286;32;20065;-73
2023/08/20 10:27:37;;;;;;;1.45;0.55;;;28.90;99.90;;;;;;4406335;32;20062;-74
2023/08/20 10:30:11;;;;;;;0.10;0.10;;;29.00;99.90;;;;;;4404777;32;20070;-73
2023/08/20 10:32:57;;;;;;;0.20;0.20;;;28.80;99.90;;;;;;4404510;32;20099;-73
2023/08/20 10:35:25;;;;;;;0.00;0.00;;;29.00;99.90;;;;;;4394943;32;20086;-74
2023/08/20 10:38:11;;;;;;;0.35;0.30;;;29.10;99.90;;;;;;4409791;32;20082;-74
2023/08/20 10:40:57;;;;;;;0.08;0.08;;;29.40;99.90;;;;;;4406286;32;20062;-74
2023/08/20 10:43:35;;;;;;;0.35;0.35;;;29.50;99.90;;;;;;4394815;32;20078;-73
2023/08/20 10:46:04;;;;;;;0.80;0.10;;;29.40;99.90;;;;;;4407273;32;20078;-74
2023/08/20 10:48:33;;;;;;;0.20;0.20;;;29.50;99.90;;;;;;4407208;32;20090;-74
2023/08/20 10:51:06;;;;;;;0.62;0.13;;;29.70;99.90;;;;;;4407903;32;20182;-74
2023/08/20 10:53:31;;;;;;;0.00;0.00;;;29.80;99.90;;;;;;4405639;32;20091;-73
2023/08/20 10:56:08;;;;;;;0.10;0.10;;;29.50;99.90;;;;;;4405563;32;20085;-73
2023/08/20 10:58:34;;;;;;;0.20;0.20;;;29.30;99.90;;;;;;4406501;32;20073;-73
2023/08/20 11:01:15;;;;;;;0.10;0.10;;;29.60;99.90;;;;;;4408120;32;20517;-73
2023/08/20 11:03:43;;;;;;;0.13;0.10;;;29.80;99.90;;;;;;4397391;32;20062;-74
2023/08/20 11:06:09;;;;;;;0.08;0.08;;;30.00;99.90;;;;;;4395979;32;20273;-73
2023/08/20 11:08:35;;;;;;;0.10;0.10;;;29.90;99.90;;;;;;4393716;32;20431;-73
2023/08/20 11:11:01;;;;;;;0.20;0.20;;;29.90;99.90;;;;;;4395643;32;20096;-74
2023/08/20 11:13:27;;;;;;;0.20;0.20;;;30.00;99.90;;;;;;4391180;32;20432;-74
2023/08/20 11:15:52;;;;;;;1.00;0.30;;;30.30;99.90;;;;;;4391517;32;20121;-74
2023/08/20 11:18:18;;;;;;;0.05;0.05;;;30.40;99.90;;;;;;4394670;32;20836;-74
2023/08/20 11:20:44;;;;;;;0.10;0.10;;;30.60;99.90;;;;;;4393006;32;20102;-74
2023/08/20 11:23:11;;;;;;;0.10;0.10;;;30.80;99.90;;;;;;4408530;32;20070;-74
2023/08/20 11:25:42;;;;;;;0.10;0.10;;;31.00;99.90;;;;;;4407968;32;20124;-74
2023/08/20 11:28:07;;;;;;;;;;;31.10;99.90;;;;;;4411949;32;20078;-74
2023/08/20 11:30:34;;;;;;;0.47;0.43;;;31.20;99.90;;;;;;4412430;32;19949;-74
2023/08/20 11:32:59;;;;;;;1.35;0.30;;;31.10;99.90;;;;;;4412303;32;20047;-74
2023/08/20 11:35:25;;;;;;;0.20;0.20;;;31.40;99.90;;;;;;4411864;32;20155;-74
2023/08/20 11:37:52;;;;;;;10.30;0.20;;;31.60;99.90;;;;;;4408352;32;20296;-74
2023/08/20 11:40:20;;;;;;;0.00;0.00;;;31.80;99.90;;;;;;4408643;32;20058;-74
2023/08/20 11:42:47;;;;;;;0.10;0.10;;;32.00;99.90;;;;;;4439807;27;20078;-66
2023/08/20 11:45:13;;;;;;;0.10;0.10;;;32.20;99.90;;;;;;4405811;32;20082;-65
2023/08/20 11:47:40;;;;;;;0.20;0.20;;;32.30;99.40;;;;;;4395871;32;85321;-63
2023/08/20 11:50:06;;;;;;;0.10;0.10;;;32.20;99.60;;;;;;4396798;32;20075;-64
2023/08/20 11:52:33;;;;;;;0.20;0.20;;;32.40;99.90;;;;;;4396951;32;20054;-65
2023/08/20 11:55:00;;;;;;;0.17;0.17;;;32.50;99.00;;;;;;4390361;32;20071;-64
2023/08/20 11:57:25;;;;;;;0.37;0.37;;;32.70;98.60;;;;;;4390751;32;20075;-65
2023/08/20 11:59:51;;;;;;;0.32;0.28;;;32.90;98.90;;;;;;4397287;32;20074;-66
2023/08/20 12:02:25;;;;;;;0.10;0.10;;;33.20;97.70;;;;;;4396555;32;20130;-65
2023/08/20 12:04:50;;;;;;;1.85;0.30;;;33.10;97.10;;;;;;4395870;32;20062;-63
2023/08/20 12:07:16;;;;;;;0.20;0.20;;;33.10;97.90;;;;;;4396249;32;20082;-64
2023/08/20 12:09:42;;;;;;;0.50;0.32;;;33.10;96.80;;;;;;4396987;32;20066;-65
2023/08/20 12:12:08;;;;;;;0.15;0.15;;;33.30;96.00;;;;;;4400606;32;20050;-65
2023/08/20 12:14:34;;;;;;;0.10;0.10;;;33.60;95.40;;;;;;4396678;32;20090;-65
2023/08/20 12:17:00;;;;;;;0.20;0.20;;;33.90;95.00;;;;;;4393473;32;20062;-68
2023/08/20 12:19:25;;;;;;;0.30;0.30;;;33.50;95.50;;;;;;4393454;32;20629;-64
2023/08/20 12:21:51;;;;;;;0.15;0.15;;;33.80;96.20;;;;;;4401005;32;20062;-62
2023/08/20 12:24:19;;;;;;;0.10;0.10;;;34.00;94.40;;;;;;4399033;32;20082;-66
2023/08/20 12:26:44;;;;;;;0.10;0.10;;;34.00;94.90;;;;;;4393968;32;20088;-66
2023/08/20 12:29:10;;;;;;;0.10;0.10;;;34.00;94.30;;;;;;4392270;32;20121;-66
2023/08/20 12:31:35;;;;;;;0.20;0.20;;;34.20;93.60;;;;;;4379884;32;20063;-66
2023/08/20 12:34:02;;;;;;;0.10;0.10;;;34.60;92.70;;;;;;4381196;32;20539;-66
2023/08/20 12:36:28;;;;;;;0.10;0.10;;;34.80;92.20;;;;;;4383770;32;20051;-66
2023/08/20 12:38:55;;;;;;;0.15;0.15;;;34.90;91.50;;;;;;4394080;32;20090;-65
2023/08/20 12:41:20;;;;;;;0.10;0.10;;;35.10;91.60;;;;;;4382969;32;20078;-65
2023/08/20 12:43:46;;;;;;;0.30;0.30;;;35.10;91.20;;;;;;4385150;32;20082;-66